createdAt,value
2019-06-26T00:00:47.930Z,101532.80
2019-06-26T00:03:18.559Z,101520.58
2019-06-26T00:05:49.016Z,101523.50
2019-06-26T00:08:19.440Z,101529.52
2019-06-26T00:10:49.958Z,101526.62
2019-06-26T00:13:26.131Z,101522.05
2019-06-26T00:15:52.703Z,101521.02
2019-06-26T00:18:23.292Z,101522.55
2019-06-26T00:20:53.924Z,101520.91
2019-06-26T00:23:24.661Z,101516.17
2019-06-26T00:25:55.527Z,101523.44
2019-06-26T00:28:26.028Z,101511.09
2019-06-26T00:30:56.536Z,101511.52
2019-06-26T00:33:26.941Z,101513.27
2019-06-26T00:35:57.524Z,101513.27
2019-06-26T00:38:27.927Z,101505.30
2019-06-26T00:40:58.386Z,101503.16
2019-06-26T00:43:41.588Z,101509.66
2019-06-26T00:46:00.903Z,101505.76
2019-06-26T00:48:31.529Z,101506.08
2019-06-26T00:51:02.232Z,101502.38
2019-06-26T00:53:32.617Z,101501.43
2019-06-26T00:56:03.018Z,101504.42
2019-06-26T00:58:33.567Z,101500.44
2019-06-26T01:01:03.983Z,101503.34
2019-06-26T01:03:34.443Z,101497.53
2019-06-26T01:06:04.999Z,101490.08
2019-06-26T01:08:35.384Z,101491.16
2019-06-26T01:11:05.921Z,101492.00
2019-06-26T01:13:36.342Z,101486.70
2019-06-26T01:16:06.739Z,101491.44
2019-06-26T01:18:37.145Z,101488.41
2019-06-26T01:21:07.628Z,101483.67
2019-06-26T01:23:38.467Z,101493.63
2019-06-26T01:26:09.157Z,101495.17
2019-06-26T01:28:39.694Z,101492.66
2019-06-26T01:31:10.085Z,101495.45
2019-06-26T01:33:40.471Z,101491.47
2019-06-26T01:36:12.338Z,101494.38
2019-06-26T01:38:43.749Z,101497.89
2019-06-26T01:41:14.652Z,101496.61
2019-06-26T01:43:45.210Z,101495.38
2019-06-26T01:46:15.626Z,101492.83
2019-06-26T01:48:45.968Z,101495.73
2019-06-26T01:51:16.478Z,101492.58
2019-06-26T01:53:46.863Z,101491.69
2019-06-26T01:56:17.277Z,101487.02
2019-06-26T01:58:47.631Z,101490.06
2019-06-26T02:01:18.044Z,101488.03
2019-06-26T02:03:48.495Z,101481.37
2019-06-26T02:06:18.887Z,101477.79
2019-06-26T02:08:49.265Z,101471.42
2019-06-26T02:11:19.762Z,101470.91
2019-06-26T02:13:50.139Z,101469.48
2019-06-26T02:16:20.609Z,101466.35
2019-06-26T02:18:52.588Z,101468.77
2019-06-26T02:21:23.951Z,101465.94
2019-06-26T02:23:54.540Z,101465.91
2019-06-26T02:26:25.735Z,101469.95
2019-06-26T02:28:56.451Z,101467.87
2019-06-26T02:31:26.912Z,101466.63
2019-06-26T02:33:57.343Z,101459.86
2019-06-26T02:36:29.457Z,101461.70
2019-06-26T02:38:59.935Z,101460.16
2019-06-26T02:41:30.331Z,101460.29
2019-06-26T02:44:00.910Z,101455.48
2019-06-26T02:46:31.400Z,101449.30
2019-06-26T02:49:01.800Z,101450.70
2019-06-26T02:51:32.256Z,101451.75
2019-06-26T02:54:02.651Z,101452.36
2019-06-26T02:56:33.128Z,101448.70
2019-06-26T02:59:03.578Z,101449.58
2019-06-26T03:01:33.991Z,101444.16
2019-06-26T03:04:04.602Z,101441.46
2019-06-26T03:06:35.035Z,101440.03
2019-06-26T03:09:07.385Z,101449.59
2019-06-26T03:11:37.793Z,101442.87
2019-06-26T03:14:08.275Z,101437.14
2019-06-26T03:16:39.162Z,101441.32
2019-06-26T03:19:09.602Z,101443.95
2019-06-26T03:21:39.986Z,101442.91
2019-06-26T03:24:10.506Z,101446.61
2019-06-26T03:26:40.990Z,101446.50
2019-06-26T03:29:11.416Z,101444.86
2019-06-26T03:31:41.841Z,101442.27
2019-06-26T03:34:12.293Z,101438.39
2019-06-26T03:36:42.954Z,101440.80
2019-06-26T03:39:13.328Z,101438.84
2019-06-26T03:41:43.774Z,101440.81
2019-06-26T03:44:14.227Z,101437.48
2019-06-26T03:46:44.610Z,101443.45
2019-06-26T03:49:15.077Z,101444.00
2019-06-26T03:51:45.561Z,101438.53
2019-06-26T03:54:15.995Z,101440.06
2019-06-26T03:56:46.507Z,101441.12
2019-06-26T03:59:17.013Z,101440.73
2019-06-26T04:01:47.436Z,101440.46
2019-06-26T04:04:17.947Z,101436.75
2019-06-26T04:06:48.420Z,101451.50
2019-06-26T04:09:18.968Z,101442.27
2019-06-26T04:11:49.416Z,101445.46
2019-06-26T04:14:20.006Z,101446.34
2019-06-26T04:16:50.421Z,101449.63
2019-06-26T04:19:20.803Z,101444.70
2019-06-26T04:21:51.296Z,101445.27
2019-06-26T04:24:21.665Z,101437.47
2019-06-26T04:26:52.268Z,101435.62
2019-06-26T04:29:22.915Z,101439.63
2019-06-26T04:31:53.349Z,101435.20
2019-06-26T04:34:23.875Z,101432.94
2019-06-26T04:36:55.958Z,101429.65
2019-06-26T04:39:26.444Z,101428.98
2019-06-26T04:41:56.863Z,101427.00
2019-06-26T04:44:27.304Z,101426.13
2019-06-26T04:46:57.741Z,101417.23
2019-06-26T04:49:28.123Z,101413.80
2019-06-26T04:51:58.624Z,101410.86
2019-06-26T04:54:29.208Z,101414.27
2019-06-26T04:57:00.128Z,101416.50
2019-06-26T04:59:30.584Z,101419.08
2019-06-26T05:02:01.009Z,101409.80
2019-06-26T05:04:31.470Z,101408.57
2019-06-26T05:07:01.974Z,101406.25
2019-06-26T05:09:32.479Z,101403.45
2019-06-26T05:12:03.021Z,101404.21
2019-06-26T05:14:33.594Z,101399.66
2019-06-26T05:17:04.043Z,101402.66
2019-06-26T05:19:34.443Z,101403.16
2019-06-26T05:22:05.101Z,101401.17
2019-06-26T05:24:35.545Z,101398.69
2019-06-26T05:27:05.972Z,101399.92
2019-06-26T05:29:36.329Z,101398.82
2019-06-26T05:32:06.761Z,101398.33
2019-06-26T05:34:37.567Z,101393.88
2019-06-26T05:37:08.069Z,101397.81
2019-06-26T05:39:39.903Z,101392.31
2019-06-26T05:42:10.552Z,101386.20
2019-06-26T05:44:41.026Z,101390.72
2019-06-26T05:47:11.578Z,101392.87
2019-06-26T05:49:42.125Z,101386.72
2019-06-26T05:52:16.496Z,101385.86
2019-06-26T05:54:45.323Z,101388.30
2019-06-26T05:57:16.169Z,101385.69
2019-06-26T05:59:46.993Z,101390.48
2019-06-26T06:02:17.800Z,101386.28
2019-06-26T06:04:48.569Z,101383.88
2019-06-26T06:07:19.189Z,101376.13
2019-06-26T06:09:49.915Z,101380.66
2019-06-26T06:12:20.650Z,101374.68
2019-06-26T06:14:51.186Z,101373.86
2019-06-26T06:17:21.810Z,101374.77
2019-06-26T06:19:52.570Z,101380.61
2019-06-26T06:22:23.220Z,101378.27
2019-06-26T06:24:54.086Z,101381.81
2019-06-26T06:27:24.928Z,101375.38
2019-06-26T06:29:57.075Z,101378.92
2019-06-26T06:32:27.756Z,101378.48
2019-06-26T06:34:58.403Z,101382.04
2019-06-26T06:37:29.206Z,101375.83
2019-06-26T06:39:59.889Z,101378.23
2019-06-26T06:42:30.532Z,101370.83
2019-06-26T06:45:01.026Z,101379.48
2019-06-26T06:47:31.543Z,101379.37
2019-06-26T06:50:02.101Z,101376.27
2019-06-26T06:52:32.771Z,101370.75
2019-06-26T06:55:04.312Z,101365.89
2019-06-26T06:57:34.888Z,101371.36
2019-06-26T07:00:07.448Z,101369.50
2019-06-26T07:02:38.077Z,101360.91
2019-06-26T07:05:10.036Z,101362.45
2019-06-26T07:07:40.798Z,101358.37
2019-06-26T07:10:11.467Z,101357.52
2019-06-26T07:12:42.083Z,101360.88
2019-06-26T07:15:13.621Z,101363.21
2019-06-26T07:17:44.334Z,101360.16
2019-06-26T07:20:14.862Z,101358.55
2019-06-26T07:22:45.377Z,101354.69
2019-06-26T07:25:16.015Z,101359.94
2019-06-26T07:27:46.554Z,101354.63
2019-06-26T07:30:17.174Z,101349.53
2019-06-26T07:32:47.887Z,101341.55
2019-06-26T07:35:18.385Z,101339.39
2019-06-26T07:37:49.306Z,101339.30
2019-06-26T07:40:19.937Z,101335.22
2019-06-26T07:42:50.498Z,101334.73
2019-06-26T07:45:23.982Z,101334.03
2019-06-26T07:47:53.468Z,101333.20
2019-06-26T07:50:24.096Z,101327.88
2019-06-26T07:52:54.577Z,101324.59
2019-06-26T07:55:25.156Z,101320.11
2019-06-26T07:57:55.759Z,101323.36
2019-06-26T08:00:26.297Z,101329.20
2019-06-26T08:02:56.773Z,101324.55
2019-06-26T08:05:27.253Z,101327.30
2019-06-26T08:07:57.783Z,101315.51
2019-06-26T08:10:28.282Z,101318.44
2019-06-26T08:12:58.958Z,101308.47
2019-06-26T08:15:29.495Z,101313.84
2019-06-26T08:18:01.529Z,101309.94
2019-06-26T08:20:32.188Z,101306.12
2019-06-26T08:23:03.612Z,101306.08
2019-06-26T08:25:34.243Z,101298.41
2019-06-26T08:28:04.869Z,101294.95
2019-06-26T08:30:35.506Z,101298.06
2019-06-26T08:33:06.107Z,101296.38
2019-06-26T08:35:36.647Z,101288.95
2019-06-26T08:38:11.347Z,101284.41
2019-06-26T08:40:39.950Z,101285.59
2019-06-26T08:43:10.482Z,101284.45
2019-06-26T08:45:40.945Z,101282.26
2019-06-26T08:48:22.718Z,101275.41
2019-06-26T08:50:43.783Z,101268.04
2019-06-26T08:53:14.304Z,101272.52
2019-06-26T08:55:44.773Z,101271.70
2019-06-26T08:58:15.275Z,101271.08
2019-06-26T09:00:46.622Z,101268.04
2019-06-26T09:03:17.347Z,101268.75
2019-06-26T09:05:48.831Z,101268.43
2019-06-26T09:08:19.459Z,101266.41
2019-06-26T09:10:50.482Z,101260.06
2019-06-26T09:13:21.045Z,101258.25
2019-06-26T09:15:51.441Z,101255.83
2019-06-26T09:18:34.961Z,101245.14
2019-06-26T09:20:54.206Z,101246.30
2019-06-26T09:23:24.773Z,101241.72
2019-06-26T09:25:55.555Z,101234.19
2019-06-26T09:28:26.103Z,101234.85
2019-06-26T09:30:56.752Z,101234.09
2019-06-26T09:33:27.335Z,101231.77
2019-06-26T09:35:57.970Z,101225.84
2019-06-26T09:38:29.171Z,101229.28
2019-06-26T09:41:00.295Z,101228.24
2019-06-26T09:43:30.940Z,101215.53
2019-06-26T09:46:01.408Z,101230.95
2019-06-26T09:48:32.017Z,101218.03
2019-06-26T09:51:02.577Z,101222.32
2019-06-26T09:53:46.598Z,101207.78
2019-06-26T09:56:05.275Z,101215.99
2019-06-26T09:58:35.687Z,101212.34
2019-06-26T10:01:06.215Z,101204.23
2019-06-26T10:03:36.681Z,101203.54
2019-06-26T10:06:07.236Z,101205.20
2019-06-26T10:08:37.620Z,101201.84
2019-06-26T10:11:08.034Z,101203.61
2019-06-26T10:13:38.563Z,101197.77
2019-06-26T10:16:09.025Z,101190.13
2019-06-26T10:18:39.506Z,101187.96
2019-06-26T10:21:09.989Z,101186.41
2019-06-26T10:23:40.405Z,101183.56
2019-06-26T10:26:10.942Z,101182.09
2019-06-26T10:28:41.341Z,101188.52
2019-06-26T10:31:11.783Z,101189.03
2019-06-26T10:33:42.357Z,101182.34
2019-06-26T10:36:13.252Z,101178.20
2019-06-26T10:38:43.892Z,101174.06
2019-06-26T10:41:14.398Z,101165.80
2019-06-26T10:43:44.916Z,101165.42
2019-06-26T10:46:15.431Z,101166.21
2019-06-26T10:48:45.923Z,101164.71
2019-06-26T10:51:16.413Z,101158.63
2019-06-26T10:53:46.810Z,101154.97
2019-06-26T10:56:17.427Z,101154.23
2019-06-26T10:58:47.924Z,101146.22
2019-06-26T11:01:18.477Z,101139.78
2019-06-26T11:03:48.932Z,101140.30
2019-06-26T11:06:19.379Z,101136.36
2019-06-26T11:08:50.936Z,101136.56
2019-06-26T11:11:21.374Z,101132.00
2019-06-26T11:13:51.822Z,101112.93
2019-06-26T11:16:22.259Z,101115.72
2019-06-26T11:18:53.049Z,101113.82
2019-06-26T11:21:23.499Z,101105.07
2019-06-26T11:23:54.157Z,101093.72
2019-06-26T11:26:24.564Z,101102.53
2019-06-26T11:28:55.072Z,101098.88
2019-06-26T11:31:25.554Z,101087.95
2019-06-26T11:33:56.235Z,101084.41
2019-06-26T11:36:26.723Z,101085.02
2019-06-26T11:38:58.153Z,101077.17
2019-06-26T11:41:32.293Z,101068.59
2019-06-26T11:44:03.493Z,101064.27
2019-06-26T11:46:37.049Z,101062.38
2019-06-26T11:49:10.785Z,101068.88
2019-06-26T11:51:59.361Z,101059.63
2019-06-26T11:54:37.546Z,101061.66
2019-06-26T11:57:19.008Z,101048.05
2019-06-26T11:59:50.548Z,101045.05
2019-06-26T12:02:25.538Z,101042.75
2019-06-26T12:04:56.742Z,101032.78
2019-06-26T12:07:29.544Z,101034.69
2019-06-26T12:10:12.757Z,101024.93
2019-06-26T12:12:45.393Z,101022.80
2019-06-26T12:15:18.770Z,101013.48
2019-06-26T12:17:51.569Z,101014.00
2019-06-26T12:20:32.261Z,101016.15
2019-06-26T12:23:08.311Z,101014.09
2019-06-26T12:25:44.106Z,101014.99
2019-06-26T12:28:37.808Z,101003.37
2019-06-26T12:31:12.161Z,101003.84
2019-06-26T12:33:46.883Z,100988.94
2019-06-26T12:36:23.922Z,100995.50
2019-06-26T12:38:55.466Z,101003.52
2019-06-26T12:41:40.016Z,100996.37
2019-06-26T12:47:34.212Z,100995.66
2019-06-26T12:50:35.783Z,100980.59
2019-06-26T12:56:39.027Z,100970.45
2019-06-26T12:59:16.581Z,100961.31
2019-06-26T13:01:48.383Z,100958.08
2019-06-26T13:04:38.268Z,100956.98
2019-06-26T13:07:18.323Z,100955.38
2019-06-26T13:09:49.717Z,100942.70
2019-06-26T13:12:27.053Z,100945.02
2019-06-26T13:15:10.857Z,100937.64
2019-06-26T13:18:20.768Z,100934.95
2019-06-26T13:20:55.114Z,100933.59
2019-06-26T13:23:32.314Z,100925.80
2019-06-26T13:26:04.007Z,100923.37
2019-06-26T13:28:38.022Z,100927.84
2019-06-26T13:31:10.441Z,100923.25
2019-06-26T13:33:41.125Z,100906.97
2019-06-26T13:36:11.883Z,100908.15
2019-06-26T13:38:42.602Z,100898.69
2019-06-26T13:41:13.355Z,100899.00
2019-06-26T13:43:43.932Z,100896.91
2019-06-26T13:46:14.494Z,100887.22
2019-06-26T13:48:45.195Z,100887.28
2019-06-26T13:51:15.777Z,100886.77
2019-06-26T13:53:46.558Z,100887.73
2019-06-26T13:56:17.297Z,100882.77
2019-06-26T13:58:47.837Z,100873.65
2019-06-26T14:01:22.987Z,100879.22
2019-06-26T14:03:53.005Z,100866.61
2019-06-26T14:06:23.629Z,100868.61
2019-06-26T14:08:54.093Z,100865.69
2019-06-26T14:11:24.666Z,100866.76
2019-06-26T14:13:56.643Z,100863.06
2019-06-26T14:16:29.808Z,100864.35
2019-06-26T14:18:59.238Z,100856.92
2019-06-26T14:21:29.724Z,100853.81
2019-06-26T14:24:00.066Z,100849.44
2019-06-26T14:26:30.467Z,100854.96
2019-06-26T14:29:00.901Z,100847.50
2019-06-26T14:31:31.434Z,100841.39
2019-06-26T14:34:01.804Z,100838.76
2019-06-26T14:36:32.331Z,100837.03
2019-06-26T14:39:03.229Z,100838.42
2019-06-26T14:41:33.714Z,100833.36
2019-06-26T14:44:04.083Z,100831.61
2019-06-26T14:46:34.542Z,100823.92
2019-06-26T14:49:05.061Z,100819.25
2019-06-26T14:51:45.443Z,100811.67
2019-06-26T14:54:07.762Z,100805.32
2019-06-26T14:56:38.250Z,100804.73
2019-06-26T14:59:08.653Z,100812.10
2019-06-26T15:01:39.483Z,100805.16
2019-06-26T15:04:09.948Z,100798.80
2019-06-26T15:06:40.380Z,100792.21
2019-06-26T15:09:10.728Z,100792.33
2019-06-26T15:11:41.348Z,100787.28
2019-06-26T15:14:12.035Z,100781.23
2019-06-26T15:16:42.506Z,100791.23
2019-06-26T15:19:13.089Z,100785.84
2019-06-26T15:21:57.537Z,100776.33
2019-06-26T15:24:15.757Z,100766.45
2019-06-26T15:26:46.223Z,100764.92
2019-06-26T15:29:16.663Z,100766.70
2019-06-26T15:31:47.170Z,100761.86
2019-06-26T15:34:17.590Z,100751.98
2019-06-26T15:36:48.070Z,100747.23
2019-06-26T15:39:18.437Z,100743.31
2019-06-26T15:41:48.883Z,100743.38
2019-06-26T15:44:19.291Z,100736.09
2019-06-26T15:46:49.876Z,100738.33
2019-06-26T15:49:20.405Z,100727.58
2019-06-26T15:51:50.814Z,100724.06
2019-06-26T15:54:21.304Z,100721.83
2019-06-26T15:56:51.848Z,100715.66
2019-06-26T15:59:22.246Z,100716.98
2019-06-26T16:01:52.763Z,100716.94
2019-06-26T16:04:23.196Z,100710.58
2019-06-26T16:06:53.663Z,100703.70
2019-06-26T16:09:24.149Z,100698.26
2019-06-26T16:11:54.617Z,100697.76
2019-06-26T16:14:25.232Z,100694.17
2019-06-26T16:16:57.216Z,100686.17
2019-06-26T16:19:27.673Z,100677.30
2019-06-26T16:21:58.139Z,100681.71
2019-06-26T16:24:30.216Z,100677.67
2019-06-26T16:27:00.964Z,100681.17
2019-06-26T16:29:31.394Z,100670.34
2019-06-26T16:32:01.846Z,100675.42
2019-06-26T16:34:32.384Z,100674.84
2019-06-26T16:37:02.871Z,100672.34
2019-06-26T16:39:33.364Z,100668.92
2019-06-26T16:42:03.841Z,100672.79
2019-06-26T16:44:34.544Z,100673.17
2019-06-26T16:47:05.030Z,100673.80
2019-06-26T16:49:35.600Z,100674.47
2019-06-26T16:52:06.179Z,100674.66
2019-06-26T16:54:36.719Z,100665.78
2019-06-26T16:57:07.224Z,100665.50
2019-06-26T16:59:37.652Z,100665.26
2019-06-26T17:02:08.252Z,100664.05
2019-06-26T17:04:38.728Z,100664.00
2019-06-26T17:07:09.193Z,100663.38
2019-06-26T17:09:39.574Z,100653.42
2019-06-26T17:12:10.044Z,100653.89
2019-06-26T17:14:40.583Z,100656.33
2019-06-26T17:17:11.150Z,100654.06
2019-06-26T17:19:41.592Z,100646.17
2019-06-26T17:22:12.155Z,100648.77
2019-06-26T17:24:42.593Z,100650.94
2019-06-26T17:27:13.163Z,100655.21
2019-06-26T17:29:43.735Z,100646.95
2019-06-26T17:32:14.236Z,100647.84
2019-06-26T17:34:44.694Z,100652.69
2019-06-26T17:37:15.263Z,100648.30
2019-06-26T17:39:45.877Z,100648.24
2019-06-26T17:42:16.972Z,100647.70
2019-06-26T17:44:47.473Z,100641.77
2019-06-26T17:47:17.906Z,100639.08
2019-06-26T17:49:48.419Z,100642.27
2019-06-26T17:52:18.898Z,100643.55
2019-06-26T17:54:49.359Z,100643.89
2019-06-26T17:57:19.801Z,100639.86
2019-06-26T17:59:50.351Z,100635.42
2019-06-26T18:02:20.817Z,100630.27
2019-06-26T18:04:51.374Z,100643.30
2019-06-26T18:07:22.065Z,100636.35
2019-06-26T18:09:52.391Z,100627.11
2019-06-26T18:12:22.794Z,100630.95
2019-06-26T18:14:53.156Z,100626.05
2019-06-26T18:17:23.590Z,100629.25
2019-06-26T18:19:54.089Z,100625.38
2019-06-26T18:22:24.648Z,100618.56
2019-06-26T18:24:55.016Z,100613.91
2019-06-26T18:27:25.424Z,100606.37
2019-06-26T18:29:55.870Z,100603.97
2019-06-26T18:32:26.286Z,100607.69
2019-06-26T18:34:56.776Z,100598.86
2019-06-26T18:37:27.444Z,100603.19
2019-06-26T18:39:58.157Z,100595.53
2019-06-26T18:42:28.780Z,100597.84
2019-06-26T18:44:59.256Z,100602.36
2019-06-26T18:47:29.651Z,100606.19
2019-06-26T18:50:00.123Z,100593.16
2019-06-26T18:52:30.664Z,100595.41
2019-06-26T18:55:01.321Z,100601.55
2019-06-26T18:57:32.165Z,100599.17
2019-06-26T19:00:02.587Z,100599.58
2019-06-26T19:02:33.076Z,100598.25
2019-06-26T19:05:04.654Z,100587.28
2019-06-26T19:07:35.126Z,100587.83
2019-06-26T19:10:08.067Z,100579.06
2019-06-26T19:12:38.631Z,100574.98
2019-06-26T19:15:09.091Z,100577.40
2019-06-26T19:17:42.448Z,100572.44
2019-06-26T19:20:12.280Z,100569.20
2019-06-26T19:22:42.767Z,100567.99
2019-06-26T19:25:13.152Z,100563.52
2019-06-26T19:27:43.616Z,100561.13
2019-06-26T19:30:14.030Z,100560.25
2019-06-26T19:32:44.522Z,100559.93
2019-06-26T19:35:19.182Z,100555.27
2019-06-26T19:37:47.021Z,100553.06
2019-06-26T19:40:17.596Z,100551.14
2019-06-26T19:42:48.074Z,100549.97
2019-06-26T19:45:18.535Z,100547.58
2019-06-26T19:47:48.925Z,100542.59
2019-06-26T19:50:23.168Z,100542.09
2019-06-26T19:52:51.534Z,100529.73
2019-06-26T19:55:21.898Z,100528.17
2019-06-26T19:57:52.442Z,100518.06
2019-06-26T20:00:22.940Z,100521.67
2019-06-26T20:02:53.691Z,100523.05
2019-06-26T20:05:24.066Z,100517.72
2019-06-26T20:07:54.541Z,100506.94
2019-06-26T20:10:24.976Z,100503.84
2019-06-26T20:12:55.371Z,100507.26
2019-06-26T20:15:25.818Z,100506.08
2019-06-26T20:17:56.911Z,100499.73
2019-06-26T20:20:27.415Z,100499.54
2019-06-26T20:22:57.830Z,100498.48
2019-06-26T20:25:28.306Z,100495.93
2019-06-26T20:27:58.756Z,100501.22
2019-06-26T20:30:33.147Z,100491.63
2019-06-26T20:33:04.071Z,100484.25
2019-06-26T20:35:34.495Z,100487.19
2019-06-26T20:38:04.967Z,100481.70
2019-06-26T20:40:35.447Z,100480.64
2019-06-26T20:43:05.929Z,100483.39
2019-06-26T20:45:36.306Z,100482.53
2019-06-26T20:48:06.784Z,100477.74
2019-06-26T20:50:37.161Z,100485.27
2019-06-26T20:53:08.079Z,100477.58
2019-06-26T20:55:38.455Z,100476.02
2019-06-26T20:58:08.912Z,100473.46
2019-06-26T21:00:39.552Z,100475.84
2019-06-26T21:03:10.146Z,100473.77
2019-06-26T21:05:40.782Z,100473.45
2019-06-26T21:08:11.186Z,100475.14
2019-06-26T21:10:41.686Z,100470.16
2019-06-26T21:13:12.238Z,100474.45
2019-06-26T21:15:42.752Z,100482.28
2019-06-26T21:18:13.183Z,100486.74
2019-06-26T21:20:43.686Z,100489.47
2019-06-26T21:23:18.834Z,100488.44
2019-06-26T21:25:46.152Z,100480.88
2019-06-26T21:28:16.689Z,100473.67
2019-06-26T21:30:47.227Z,100476.77
2019-06-26T21:33:17.869Z,100475.04
2019-06-26T21:35:48.254Z,100476.23
2019-06-26T21:38:18.774Z,100480.33
2019-06-26T21:40:49.151Z,100489.37
2019-06-26T21:43:19.605Z,100480.23
2019-06-26T21:45:50.048Z,100487.35
2019-06-26T21:48:20.548Z,100487.61
2019-06-26T21:50:50.931Z,100480.91
2019-06-26T21:53:21.307Z,100469.91
2019-06-26T21:55:51.704Z,100460.97
2019-06-26T21:58:22.095Z,100467.63
2019-06-26T22:00:52.706Z,100455.42
2019-06-26T22:03:23.287Z,100443.46
2019-06-26T22:05:53.761Z,100447.41
2019-06-26T22:08:24.160Z,100437.63
2019-06-26T22:10:54.606Z,100440.70
2019-06-26T22:13:25.201Z,100448.31
2019-06-26T22:15:55.651Z,100441.09
2019-06-26T22:18:26.255Z,100437.31
2019-06-26T22:20:56.616Z,100436.60
2019-06-26T22:23:27.035Z,100427.03
2019-06-26T22:25:57.544Z,100432.33
2019-06-26T22:28:28.060Z,100430.95
2019-06-26T22:30:58.419Z,100433.33
2019-06-26T22:33:28.937Z,100435.03
2019-06-26T22:35:59.316Z,100447.34
2019-06-26T22:38:29.809Z,100458.97
2019-06-26T22:41:00.517Z,100476.20
2019-06-26T22:43:31.143Z,100497.62
2019-06-26T22:46:01.607Z,100502.61
2019-06-26T22:48:32.110Z,100509.13
2019-06-26T22:51:03.726Z,100505.77
2019-06-26T22:53:34.147Z,100510.38
2019-06-26T22:56:08.064Z,100507.67
2019-06-26T22:58:36.862Z,100514.34
2019-06-26T23:01:07.244Z,100516.00
2019-06-26T23:03:37.813Z,100511.66
2019-06-26T23:06:08.313Z,100503.30
2019-06-26T23:08:38.805Z,100502.05
2019-06-26T23:11:09.563Z,100499.89
2019-06-26T23:13:39.975Z,100494.13
2019-06-26T23:16:10.515Z,100500.72
2019-06-26T23:18:41.096Z,100503.99
2019-06-26T23:21:11.496Z,100502.80
2019-06-26T23:23:41.970Z,100510.83
2019-06-26T23:26:23.510Z,100507.84
2019-06-26T23:28:44.568Z,100510.56
2019-06-26T23:31:14.928Z,100505.02
2019-06-26T23:33:45.455Z,100500.16
2019-06-26T23:36:15.897Z,100504.48
2019-06-26T23:38:46.383Z,100520.84
2019-06-26T23:41:18.111Z,100507.95
2019-06-26T23:43:48.764Z,100500.71
2019-06-26T23:46:19.229Z,100497.84
2019-06-26T23:48:49.767Z,100503.76
2019-06-26T23:51:20.266Z,100501.12
2019-06-26T23:53:50.794Z,100510.81
2019-06-26T23:56:21.351Z,100511.72
2019-06-26T23:58:51.860Z,100512.63
